Time;durP1;ratioP1;P1;durP2;ratioP2;P2;SDS_P1;SDS_P2;PMS_P1;PMS_P2;Temp;Humidity;BMP_temperature;BMP_pressure;BME280_temperature;BME280_humidity;BME280_pressure;Samples;Min_cycle;Max_cycle;Signal;HPM_P1;HPM_P2
2023/01/26 00:00:01;;;;;;;80.37;34.20;;;1.30;99.90;;;;;;5053495;28;20228;-83
2023/01/26 00:02:26;;;;;;;76.70;33.00;;;1.30;99.90;;;;;;5054778;28;20177;-88
2023/01/26 00:04:52;;;;;;;82.60;34.33;;;1.30;99.90;;;;;;5054099;28;20582;-87
2023/01/26 00:07:18;;;;;;;71.93;31.37;;;1.40;99.90;;;;;;5055190;28;20264;-87
2023/01/26 00:09:43;;;;;;;73.83;31.67;;;1.20;99.90;;;;;;5054355;28;20179;-83
2023/01/26 00:12:09;;;;;;;85.83;35.10;;;1.30;99.90;;;;;;5055640;28;20188;-84
2023/01/26 00:14:48;;;;;;;78.50;33.33;;;1.30;99.90;;;;;;5053766;28;20173;-83
2023/01/26 00:17:24;;;;;;;77.13;32.33;;;1.30;99.90;;;;;;5054804;28;20169;-88
2023/01/26 00:19:54;;;;;;;77.20;31.80;;;1.30;99.90;;;;;;5058608;28;20653;-87
2023/01/26 00:22:21;;;;;;;75.17;34.50;;;1.30;99.90;;;;;;5057534;28;20259;-86
2023/01/26 00:24:46;;;;;;;75.83;33.37;;;1.30;99.90;;;;;;5057724;28;20245;-87
2023/01/26 00:27:13;;;;;;;83.47;36.00;;;1.30;99.90;;;;;;5056529;28;20181;-90
2023/01/26 00:29:39;;;;;;;79.77;32.83;;;1.40;99.90;;;;;;5057638;28;20636;-85
2023/01/26 00:32:06;;;;;;;79.53;34.60;;;1.30;99.90;;;;;;5057220;28;20177;-86
2023/01/26 00:34:32;;;;;;;81.73;34.00;;;1.40;99.90;;;;;;5061564;28;20173;-81
2023/01/26 00:36:57;;;;;;;76.97;33.57;;;1.40;99.90;;;;;;5063147;28;20235;-87
2023/01/26 00:39:23;;;;;;;79.50;33.23;;;1.40;99.90;;;;;;5064420;28;20192;-88
2023/01/26 00:44:33;;;;;;;72.70;31.83;;;1.40;99.90;;;;;;5077480;28;20272;-84
2023/01/26 00:47:00;;;;;;;71.87;32.70;;;1.30;99.90;;;;;;5065848;28;20177;-86
2023/01/26 00:49:26;;;;;;;76.40;34.97;;;1.30;99.90;;;;;;5064776;28;20684;-85
2023/01/26 00:51:55;;;;;;;77.40;34.67;;;1.30;99.90;;;;;;5057963;28;20203;-84
2023/01/26 00:54:23;;;;;;;75.67;34.67;;;1.40;99.90;;;;;;5056650;28;20605;-82
2023/01/26 00:56:51;;;;;;;82.30;34.70;;;1.50;99.90;;;;;;5076495;28;20165;-81
2023/01/26 00:59:17;;;;;;;75.00;33.90;;;1.60;99.90;;;;;;5066467;28;20271;-86
2023/01/26 01:01:46;;;;;;;77.23;33.70;;;1.50;99.90;;;;;;5061587;28;20247;-85
2023/01/26 01:04:11;;;;;;;77.07;33.87;;;1.50;99.90;;;;;;5062421;28;20195;-86
2023/01/26 01:06:37;;;;;;;70.23;33.20;;;1.50;99.90;;;;;;5068027;28;20197;-82
2023/01/26 01:09:03;;;;;;;75.00;33.53;;;1.60;99.90;;;;;;5074249;28;20652;-87
2023/01/26 01:11:31;;;;;;;76.53;34.27;;;1.50;99.90;;;;;;5072686;28;20208;-83
2023/01/26 01:13:58;;;;;;;70.07;32.53;;;1.40;99.90;;;;;;5075719;28;20256;-81
2023/01/26 01:16:50;;;;;;;78.07;35.10;;;1.30;99.90;;;;;;5076911;28;20181;-81
2023/01/26 01:22:50;;;;;;;82.70;35.33;;;1.40;99.90;;;;;;5064597;28;20618;-86
2023/01/26 01:25:55;;;;;;;86.97;37.83;;;1.40;99.90;;;;;;5059415;28;20200;-87
2023/01/26 01:28:20;;;;;;;84.40;35.73;;;1.60;99.90;;;;;;5057717;28;20641;-86
2023/01/26 01:30:46;;;;;;;86.03;35.97;;;1.60;99.90;;;;;;5065965;28;20173;-82
2023/01/26 01:33:11;;;;;;;78.13;35.03;;;1.60;99.90;;;;;;5073938;28;20157;-84
2023/01/26 01:35:38;;;;;;;84.03;37.33;;;1.60;99.90;;;;;;5063267;28;20204;-87
2023/01/26 01:38:05;;;;;;;78.50;34.90;;;1.60;99.90;;;;;;5056673;28;20192;-86
2023/01/26 01:40:30;;;;;;;83.60;35.80;;;1.60;99.90;;;;;;5057312;28;20211;-86
2023/01/26 01:42:56;;;;;;;84.27;36.50;;;1.70;99.90;;;;;;5070125;28;20157;-87
2023/01/26 01:45:42;;;;;;;77.77;35.70;;;1.60;99.90;;;;;;5079169;28;20180;-89
2023/01/26 01:48:32;;;;;;;77.23;35.13;;;1.50;99.90;;;;;;5075981;28;20252;-86
2023/01/26 01:51:12;;;;;;;82.80;36.53;;;1.60;99.90;;;;;;5052732;28;20185;-85
2023/01/26 01:53:43;;;;;;;81.10;35.37;;;1.60;99.90;;;;;;5058120;28;20557;-89
2023/01/26 01:56:17;;;;;;;74.60;33.33;;;1.70;99.90;;;;;;5057598;28;20523;-86
2023/01/26 01:58:44;;;;;;;81.87;36.47;;;1.70;99.90;;;;;;5058259;28;20283;-88
2023/01/26 02:01:11;;;;;;;79.57;36.00;;;1.60;99.90;;;;;;5058368;28;20606;-87
2023/01/26 02:03:37;;;;;;;78.17;34.97;;;1.70;99.90;;;;;;5057145;28;20620;-86
2023/01/26 02:06:09;;;;;;;81.60;36.87;;;1.80;99.90;;;;;;5061866;28;20168;-83
2023/01/26 02:08:50;;;;;;;80.67;36.13;;;1.80;99.90;;;;;;5074373;28;20169;-86
2023/01/26 02:11:21;;;;;;;72.73;34.70;;;1.80;99.90;;;;;;5058172;28;20165;-89
2023/01/26 02:13:48;;;;;;;82.57;34.87;;;1.70;99.90;;;;;;5058467;28;20185;-82
2023/01/26 02:16:16;;;;;;;76.07;33.47;;;1.70;99.90;;;;;;5056644;28;20263;-88
2023/01/26 02:18:43;;;;;;;76.83;34.13;;;1.70;99.90;;;;;;5056593;28;20176;-87
2023/01/26 02:21:16;;;;;;;77.07;33.77;;;1.80;99.90;;;;;;5070616;28;20228;-87
2023/01/26 02:24:06;;;;;;;79.87;35.07;;;1.60;99.90;;;;;;5065648;28;20169;-86
2023/01/26 02:26:33;;;;;;;75.27;32.80;;;1.70;99.90;;;;;;5055675;28;20653;-86
2023/01/26 02:29:01;;;;;;;73.90;33.07;;;1.70;99.90;;;;;;5056536;28;20173;-87
2023/01/26 02:31:28;;;;;;;72.27;32.43;;;1.70;99.90;;;;;;5058776;28;20192;-86
2023/01/26 02:33:56;;;;;;;72.53;32.87;;;1.60;99.90;;;;;;5063002;28;20211;-87
2023/01/26 02:36:24;;;;;;;73.73;31.77;;;1.60;99.90;;;;;;5063617;28;20180;-89
2023/01/26 02:39:22;;;;;;;78.50;34.43;;;1.60;99.90;;;;;;5064909;28;20195;-87
2023/01/26 02:44:38;;;;;;;81.80;35.93;;;2.00;99.90;;;;;;5055822;28;20184;-86
2023/01/26 02:47:12;;;;;;;75.90;33.43;;;2.00;99.90;;;;;;5052885;28;20181;-86
2023/01/26 02:49:47;;;;;;;83.27;35.27;;;2.10;99.90;;;;;;5054820;28;20169;-88
2023/01/26 02:52:20;;;;;;;87.50;37.17;;;2.20;99.90;;;;;;5053880;28;20176;-87
2023/01/26 02:57:32;;;;;;;76.77;36.63;;;2.00;99.90;;;;;;5057506;28;20252;-87
2023/01/26 02:59:58;;;;;;;72.03;33.80;;;2.20;99.90;;;;;;5057543;28;20165;-87
2023/01/26 03:02:24;;;;;;;70.97;33.13;;;2.00;99.90;;;;;;5057828;28;20590;-87
2023/01/26 03:04:50;;;;;;;76.83;33.57;;;2.00;99.90;;;;;;5058577;28;20169;-87
2023/01/26 03:07:15;;;;;;;69.10;32.90;;;2.00;99.90;;;;;;5053616;28;20172;-87
2023/01/26 03:09:41;;;;;;;75.93;33.97;;;2.00;99.90;;;;;;5056647;28;20172;-84
2023/01/26 03:12:07;;;;;;;77.60;34.77;;;2.20;99.90;;;;;;5075288;28;20187;-87
2023/01/26 03:14:33;;;;;;;73.30;33.70;;;2.30;99.90;;;;;;5060066;28;20223;-87
2023/01/26 03:17:01;;;;;;;75.73;33.93;;;2.30;99.90;;;;;;5056109;28;20161;-88
2023/01/26 03:27:44;;;;;;;75.70;33.80;;;2.40;99.90;;;;;;5075986;28;20857;-83
2023/01/26 03:30:11;;;;;;;72.43;33.00;;;2.40;99.90;;;;;;5066895;28;20230;-88
2023/01/26 03:32:40;;;;;;;73.50;34.30;;;2.40;99.90;;;;;;5057761;28;20181;-88
2023/01/26 03:35:14;;;;;;;72.53;33.73;;;2.50;99.90;;;;;;5053546;28;20173;-87
2023/01/26 03:37:42;;;;;;;73.63;33.40;;;2.40;99.90;;;;;;5070847;28;20173;-84
2023/01/26 03:56:40;;;;;;;65.23;31.43;;;2.60;99.90;;;;;;5061645;28;20222;-86
2023/01/26 03:59:07;;;;;;;68.53;31.17;;;2.40;99.90;;;;;;5057427;28;20263;-88
2023/01/26 04:01:39;;;;;;;60.07;27.93;;;2.30;99.90;;;;;;5057081;28;20258;-87
2023/01/26 04:09:38;;;;;;;52.23;26.07;;;2.10;99.90;;;;;;5060330;28;20191;-81
2023/01/26 04:12:04;;;;;;;59.77;29.80;;;1.90;99.90;;;;;;5061803;28;20242;-88
2023/01/26 04:22:44;;;;;;;62.83;29.43;;;2.20;99.90;;;;;;5079208;28;20180;-83
2023/01/26 04:25:19;;;;;;;67.63;30.47;;;2.10;99.90;;;;;;5063025;28;20181;-83
2023/01/26 04:27:45;;;;;;;55.80;26.67;;;2.10;99.90;;;;;;5060292;28;20172;-84
2023/01/26 04:30:51;;;;;;;55.53;27.57;;;1.90;99.90;;;;;;5063850;28;20687;-86
2023/01/26 04:33:18;;;;;;;54.00;26.60;;;1.90;99.90;;;;;;5056651;28;20200;-87
2023/01/26 04:35:43;;;;;;;49.73;25.10;;;1.90;99.90;;;;;;5064265;28;20207;-85
2023/01/26 04:38:09;;;;;;;57.10;27.13;;;1.90;99.90;;;;;;5078855;28;20161;-83
2023/01/26 04:40:35;;;;;;;59.53;28.93;;;2.00;99.90;;;;;;5073591;28;20209;-85
2023/01/26 04:43:00;;;;;;;66.40;29.13;;;2.20;99.90;;;;;;5069559;28;20235;-85
2023/01/26 04:45:28;;;;;;;56.17;28.53;;;2.40;99.90;;;;;;5058869;28;20488;-88
2023/01/26 04:47:57;;;;;;;55.17;27.83;;;2.20;99.90;;;;;;5057020;28;20176;-88
2023/01/26 04:50:25;;;;;;;61.53;27.80;;;2.30;99.90;;;;;;5058777;28;20239;-87
2023/01/26 04:52:52;;;;;;;57.77;26.73;;;2.20;99.90;;;;;;5056705;28;20315;-88
2023/01/26 04:55:17;;;;;;;55.40;28.43;;;2.20;99.90;;;;;;5055746;28;20681;-87
2023/01/26 04:57:43;;;;;;;56.40;26.93;;;2.10;99.90;;;;;;5055537;28;20230;-88
2023/01/26 05:00:10;;;;;;;56.07;27.77;;;2.20;99.90;;;;;;5055847;28;20164;-87
2023/01/26 05:02:36;;;;;;;62.80;29.27;;;2.20;99.90;;;;;;5058071;28;20188;-85
2023/01/26 05:05:02;;;;;;;58.97;27.60;;;2.10;99.90;;;;;;5065929;28;20228;-85
2023/01/26 05:07:27;;;;;;;56.10;27.43;;;2.10;99.90;;;;;;5073660;28;20161;-84
2023/01/26 05:09:54;;;;;;;50.67;26.60;;;2.10;99.90;;;;;;5078392;28;20184;-82
2023/01/26 05:12:32;;;;;;;58.90;28.87;;;2.30;99.90;;;;;;5073786;28;20226;-87
2023/01/26 05:14:57;;;;;;;52.70;27.63;;;2.10;99.90;;;;;;5067559;28;20160;-87
2023/01/26 05:17:23;;;;;;;55.27;26.73;;;2.10;99.90;;;;;;5064628;28;20169;-88
2023/01/26 05:19:55;;;;;;;56.03;28.13;;;2.20;99.90;;;;;;5058086;28;20539;-88
2023/01/26 05:22:23;;;;;;;55.43;26.97;;;2.20;99.90;;;;;;5058605;28;20211;-89
2023/01/26 05:24:50;;;;;;;51.73;25.17;;;2.10;99.90;;;;;;5059740;28;20249;-87
2023/01/26 05:27:20;;;;;;;53.17;27.23;;;2.10;99.90;;;;;;5060368;28;20613;-88
2023/01/26 05:29:46;;;;;;;51.30;25.00;;;2.10;99.90;;;;;;5057807;28;20184;-88
2023/01/26 05:32:12;;;;;;;49.00;25.40;;;2.10;99.90;;;;;;5057596;28;20507;-88
2023/01/26 05:34:38;;;;;;;53.67;26.47;;;2.10;99.90;;;;;;5076226;28;20164;-87
2023/01/26 05:37:05;;;;;;;48.23;24.87;;;2.20;99.90;;;;;;5077979;28;20283;-87
2023/01/26 05:39:33;;;;;;;50.10;25.10;;;2.30;99.90;;;;;;5073675;28;20177;-85
2023/01/26 05:42:47;;;;;;;56.07;25.73;;;2.40;99.90;;;;;;5072065;28;20204;-87
2023/01/26 05:45:18;;;;;;;51.80;25.57;;;2.40;99.90;;;;;;5039296;28;20181;-86
2023/01/26 05:47:45;;;;;;;53.13;24.90;;;2.30;99.90;;;;;;5058841;28;20161;-87
2023/01/26 05:50:12;;;;;;;50.03;25.17;;;2.30;99.90;;;;;;5069835;28;20177;-86
2023/01/26 05:52:39;;;;;;;43.87;23.07;;;2.30;99.90;;;;;;5077224;28;20184;-86
2023/01/26 05:55:05;;;;;;;50.47;25.37;;;2.30;99.90;;;;;;5077893;28;20197;-85
2023/01/26 05:57:31;;;;;;;42.57;22.10;;;2.30;99.90;;;;;;5066190;28;20573;-88
2023/01/26 06:03:19;;;;;;;44.50;23.57;;;2.30;99.90;;;;;;5058466;28;20173;-89
2023/01/26 06:05:52;;;;;;;45.73;23.57;;;2.30;99.90;;;;;;5057589;28;20499;-84
2023/01/26 06:08:18;;;;;;;44.67;23.53;;;2.30;99.90;;;;;;5058050;28;20660;-86
2023/01/26 06:10:44;;;;;;;47.77;24.90;;;2.50;99.90;;;;;;5058168;28;20259;-89
2023/01/26 06:13:09;;;;;;;47.93;24.27;;;2.60;99.90;;;;;;5057874;28;20683;-89
2023/01/26 06:15:35;;;;;;;46.63;22.57;;;2.70;99.90;;;;;;5057332;28;20621;-87
2023/01/26 06:18:01;;;;;;;49.30;24.33;;;2.70;99.90;;;;;;5055150;28;20655;-86
2023/01/26 06:20:26;;;;;;;44.17;22.60;;;2.70;99.90;;;;;;5054574;28;20216;-83
2023/01/26 06:22:52;;;;;;;41.33;21.47;;;2.80;99.90;;;;;;5056633;28;20258;-86
2023/01/26 06:25:18;;;;;;;44.50;22.43;;;3.00;99.90;;;;;;5062813;28;20207;-83
2023/01/26 06:27:43;;;;;;;43.43;21.40;;;2.90;99.90;;;;;;5057904;28;20553;-88
2023/01/26 06:30:11;;;;;;;41.90;21.90;;;2.80;99.90;;;;;;5060599;28;20184;-87
2023/01/26 06:32:37;;;;;;;41.10;20.77;;;2.70;99.90;;;;;;5063952;28;20169;-85
2023/01/26 06:35:05;;;;;;;39.93;20.90;;;2.80;99.90;;;;;;5068419;28;20202;-86
2023/01/26 06:37:32;;;;;;;39.10;20.57;;;2.90;99.90;;;;;;5063812;28;20255;-84
2023/01/26 06:39:59;;;;;;;38.00;21.53;;;2.80;99.90;;;;;;5067284;28;20169;-86
2023/01/26 06:42:24;;;;;;;39.57;21.13;;;2.80;99.90;;;;;;5063326;28;20196;-90
2023/01/26 06:44:52;;;;;;;37.90;20.47;;;3.00;99.90;;;;;;5057706;28;20176;-89
2023/01/26 06:47:18;;;;;;;37.60;20.50;;;2.90;99.90;;;;;;5056337;28;20192;-87
2023/01/26 06:49:47;;;;;;;32.87;17.80;;;3.00;99.90;;;;;;5060082;28;20189;-88
2023/01/26 06:52:27;;;;;;;33.63;18.77;;;3.00;99.90;;;;;;5061805;28;20180;-93
2023/01/26 06:54:54;;;;;;;36.23;19.40;;;3.10;99.90;;;;;;5057004;28;20242;-86
2023/01/26 06:57:20;;;;;;;35.33;18.23;;;3.00;99.90;;;;;;5041999;28;20169;-87
2023/01/26 06:59:47;;;;;;;35.00;18.83;;;3.00;99.90;;;;;;5060516;28;20192;-86
2023/01/26 07:02:20;;;;;;;36.13;19.23;;;3.10;99.90;;;;;;5061409;28;20208;-88
2023/01/26 07:04:46;;;;;;;37.07;19.67;;;3.20;99.90;;;;;;5050298;28;20177;-91
2023/01/26 07:07:12;;;;;;;34.70;18.67;;;3.20;99.90;;;;;;5032426;28;20187;-89
2023/01/26 07:09:38;;;;;;;34.20;17.97;;;3.30;99.90;;;;;;5057981;28;20188;-90
2023/01/26 07:12:04;;;;;;;30.70;17.33;;;3.30;99.90;;;;;;5057006;28;20220;-87
2023/01/26 07:14:31;;;;;;;32.90;18.20;;;3.30;99.90;;;;;;5056055;28;20180;-88
2023/01/26 07:16:56;;;;;;;29.83;16.30;;;3.40;99.90;;;;;;5056822;28;20279;-90
2023/01/26 07:19:24;;;;;;;31.73;17.60;;;3.40;99.90;;;;;;5066565;28;20189;-88
2023/01/26 07:21:50;;;;;;;33.07;17.50;;;3.40;99.90;;;;;;5064773;28;20204;-90
2023/01/26 07:24:16;;;;;;;33.87;18.67;;;3.50;99.90;;;;;;5065169;28;20259;-87
2023/01/26 07:26:41;;;;;;;35.37;18.30;;;3.40;99.90;;;;;;5058543;28;20279;-88
2023/01/26 07:29:07;;;;;;;35.23;19.07;;;3.40;99.90;;;;;;5057496;28;20196;-86
2023/01/26 07:31:33;;;;;;;30.17;16.30;;;3.50;99.90;;;;;;5069563;28;20532;-86
2023/01/26 07:33:58;;;;;;;34.83;17.37;;;3.50;99.90;;;;;;5059458;28;20738;-86
2023/01/26 07:36:24;;;;;;;37.10;18.30;;;3.40;99.80;;;;;;5068841;28;20162;-89
2023/01/26 07:38:50;;;;;;;36.33;18.03;;;3.40;99.70;;;;;;5079274;28;20144;-89
2023/01/26 07:41:15;;;;;;;35.47;19.87;;;3.40;99.90;;;;;;5078992;28;20216;-89
2023/01/26 07:43:41;;;;;;;36.73;18.70;;;3.30;99.90;;;;;;5075971;28;20168;-87
2023/01/26 07:46:09;;;;;;;35.40;19.00;;;3.30;99.90;;;;;;5065323;28;20191;-89
2023/01/26 07:48:35;;;;;;;35.90;19.73;;;3.40;99.90;;;;;;5066077;28;20195;-90
2023/01/26 07:51:04;;;;;;;39.87;19.30;;;3.40;99.90;;;;;;5071849;28;20177;-86
2023/01/26 07:53:32;;;;;;;39.43;19.50;;;3.40;99.90;;;;;;5069176;28;20172;-87
2023/01/26 07:56:20;;;;;;;36.97;19.43;;;3.40;99.90;;;;;;5065956;28;20184;-87
2023/01/26 07:58:53;;;;;;;39.07;19.40;;;3.40;99.90;;;;;;5062808;28;20207;-88
2023/01/26 08:01:20;;;;;;;34.53;18.20;;;3.50;99.90;;;;;;5079222;28;20251;-86
2023/01/26 08:03:49;;;;;;;39.70;19.90;;;3.50;99.90;;;;;;5074394;28;20172;-87
2023/01/26 08:06:19;;;;;;;35.90;18.57;;;3.50;99.90;;;;;;5071298;28;20169;-86
2023/01/26 08:08:49;;;;;;;33.57;17.07;;;3.60;99.90;;;;;;5073780;28;20230;-86
2023/01/26 08:11:21;;;;;;;32.53;16.73;;;3.50;99.90;;;;;;5068986;28;20177;-86
2023/01/26 08:13:46;;;;;;;33.23;16.37;;;3.50;99.90;;;;;;5062798;28;20189;-87
2023/01/26 08:16:13;;;;;;;32.00;17.53;;;3.70;99.90;;;;;;5079431;28;20188;-86
2023/01/26 08:18:40;;;;;;;33.10;18.30;;;3.60;99.90;;;;;;5080450;28;20181;-87
2023/01/26 08:21:11;;;;;;;36.43;17.93;;;3.60;99.90;;;;;;5079178;28;20208;-87
2023/01/26 08:23:37;;;;;;;34.33;18.03;;;3.40;99.90;;;;;;5077678;28;20161;-87
2023/01/26 08:26:12;;;;;;;38.67;18.57;;;3.60;99.90;;;;;;5068134;28;20189;-89
2023/01/26 08:28:40;;;;;;;37.17;18.33;;;3.70;99.90;;;;;;5059494;28;20193;-88
2023/01/26 08:31:19;;;;;;;35.07;17.87;;;3.70;99.90;;;;;;5061008;28;20168;-89
2023/01/26 08:33:47;;;;;;;35.27;19.60;;;3.80;99.90;;;;;;5060212;28;20187;-88
2023/01/26 08:36:15;;;;;;;37.90;19.33;;;3.70;99.90;;;;;;5060222;28;20208;-88
2023/01/26 08:38:42;;;;;;;39.10;18.27;;;3.70;99.90;;;;;;5060184;28;20189;-88
2023/01/26 08:41:08;;;;;;;38.63;19.33;;;3.80;99.90;;;;;;5059446;28;20216;-89
2023/01/26 08:43:34;;;;;;;36.60;18.67;;;3.80;99.90;;;;;;5060190;28;20180;-87
2023/01/26 08:46:00;;;;;;;39.43;19.93;;;3.90;99.90;;;;;;5060840;28;20181;-88
2023/01/26 08:48:27;;;;;;;37.43;19.00;;;4.10;99.90;;;;;;5062085;28;20191;-89
2023/01/26 08:50:59;;;;;;;39.17;18.30;;;3.90;99.90;;;;;;5065657;28;20203;-89
2023/01/26 08:53:25;;;;;;;35.03;16.93;;;4.00;99.90;;;;;;5071142;28;20176;-87
2023/01/26 08:55:51;;;;;;;36.10;18.17;;;3.90;99.90;;;;;;5077646;28;20164;-86
2023/01/26 08:58:17;;;;;;;36.03;20.03;;;4.00;99.90;;;;;;5067574;28;20234;-89
2023/01/26 09:00:42;;;;;;;38.57;21.63;;;4.00;99.90;;;;;;5069437;28;20212;-87
2023/01/26 09:03:08;;;;;;;34.87;19.90;;;3.80;99.90;;;;;;5075133;28;20165;-87
2023/01/26 09:05:47;;;;;;;34.70;18.97;;;3.70;99.90;;;;;;5073994;28;20181;-88
2023/01/26 09:08:15;;;;;;;33.27;18.37;;;3.70;99.90;;;;;;5060149;28;20193;-89
2023/01/26 09:10:43;;;;;;;31.50;17.10;;;3.80;99.90;;;;;;5060833;28;21020;-88
2023/01/26 09:13:10;;;;;;;30.90;16.60;;;3.90;99.90;;;;;;5059844;28;20306;-88
2023/01/26 09:15:37;;;;;;;25.63;15.80;;;3.80;99.90;;;;;;5043455;28;20173;-88
2023/01/26 09:18:03;;;;;;;28.33;16.03;;;3.80;99.90;;;;;;5060949;28;20237;-88
2023/01/26 09:20:29;;;;;;;27.87;16.40;;;3.80;99.90;;;;;;5074394;28;20185;-85
2023/01/26 09:22:56;;;;;;;30.57;17.23;;;3.90;99.90;;;;;;5075983;28;20241;-87
2023/01/26 09:25:23;;;;;;;25.97;15.03;;;3.80;99.90;;;;;;5071684;28;20180;-88
2023/01/26 09:27:48;;;;;;;26.43;14.70;;;3.70;99.90;;;;;;5070439;28;20177;-87
2023/01/26 09:30:15;;;;;;;23.27;14.03;;;3.80;99.90;;;;;;5062091;28;20632;-87
2023/01/26 09:32:44;;;;;;;23.70;13.53;;;3.80;99.90;;;;;;5059638;28;20168;-87
2023/01/26 09:35:10;;;;;;;24.90;12.80;;;3.70;99.90;;;;;;5060957;28;20169;-88
2023/01/26 09:37:37;;;;;;;23.17;13.93;;;3.60;99.90;;;;;;5059047;28;20252;-88
2023/01/26 09:40:05;;;;;;;21.30;13.23;;;3.50;99.90;;;;;;5057229;28;20173;-88
2023/01/26 09:42:58;;;;;;;24.20;13.47;;;3.70;99.90;;;;;;5058331;28;20177;-86
2023/01/26 09:45:39;;;;;;;22.77;13.07;;;3.70;99.90;;;;;;5057866;28;20177;-87
2023/01/26 09:48:15;;;;;;;22.87;13.17;;;3.50;99.90;;;;;;5057164;28;20172;-88
2023/01/26 09:50:59;;;;;;;21.77;12.43;;;3.30;99.90;;;;;;5057905;28;20173;-88
2023/01/26 09:53:37;;;;;;;22.70;12.97;;;3.30;99.90;;;;;;5058363;28;20176;-89
2023/01/26 09:56:04;;;;;;;23.03;13.97;;;3.40;99.90;;;;;;5067509;28;20161;-88
2023/01/26 09:58:39;;;;;;;22.23;13.30;;;3.40;99.90;;;;;;5069533;28;20259;-88
2023/01/26 10:01:23;;;;;;;22.70;13.97;;;3.50;99.90;;;;;;5059194;28;20602;-88
2023/01/26 10:04:35;;;;;;;24.63;13.97;;;3.50;99.90;;;;;;5061138;28;20199;-88
2023/01/26 10:07:07;;;;;;;25.63;14.67;;;3.40;99.90;;;;;;5009571;28;20269;-85
2023/01/26 10:09:36;;;;;;;25.57;15.17;;;3.50;99.90;;;;;;5069004;28;20185;-87
2023/01/26 10:12:25;;;;;;;23.83;13.23;;;3.70;99.90;;;;;;5076926;28;20201;-87
2023/01/26 10:15:00;;;;;;;23.53;12.80;;;3.60;99.90;;;;;;5078174;28;20161;-85
2023/01/26 10:17:49;;;;;;;25.30;14.63;;;3.50;99.90;;;;;;5077900;28;20157;-84
2023/01/26 10:20:40;;;;;;;25.03;14.30;;;3.50;99.90;;;;;;5052369;28;20185;-87
2023/01/26 10:23:10;;;;;;;23.53;13.93;;;3.50;99.90;;;;;;5044538;28;20184;-87
2023/01/26 10:25:40;;;;;;;30.63;14.60;;;3.60;99.90;;;;;;5075214;28;20164;-84
2023/01/26 10:28:25;;;;;;;31.47;15.27;;;3.50;99.90;;;;;;5077090;28;20191;-87
2023/01/26 10:30:55;;;;;;;29.77;14.20;;;3.50;99.90;;;;;;5077732;28;20161;-89
2023/01/26 10:33:36;;;;;;;30.03;16.03;;;3.60;99.90;;;;;;5059644;28;20169;-84
2023/01/26 10:36:09;;;;;;;26.03;15.57;;;3.80;99.90;;;;;;5073485;28;20173;-87
2023/01/26 10:38:41;;;;;;;33.93;18.33;;;3.90;99.90;;;;;;5072883;28;20187;-87
2023/01/26 10:41:18;;;;;;;32.80;17.20;;;3.90;99.90;;;;;;5072665;28;20288;-86
2023/01/26 10:43:57;;;;;;;41.37;17.97;;;3.90;99.90;;;;;;5070983;28;20188;-86
2023/01/26 10:46:38;;;;;;;29.37;15.70;;;4.10;99.90;;;;;;5070121;28;20621;-88
2023/01/26 10:49:27;;;;;;;34.30;17.63;;;4.10;99.90;;;;;;5060807;28;20200;-88
2023/01/26 10:52:26;;;;;;;37.80;19.00;;;4.30;99.90;;;;;;5060061;28;20515;-88
2023/01/26 10:55:20;;;;;;;36.87;18.00;;;4.10;99.90;;;;;;5059036;28;20196;-87
2023/01/26 10:57:45;;;;;;;35.60;18.70;;;4.10;99.90;;;;;;5073238;28;20193;-86
2023/01/26 11:00:27;;;;;;;32.00;17.83;;;4.30;99.90;;;;;;5066810;28;20165;-90
2023/01/26 11:03:17;;;;;;;37.10;18.07;;;4.40;99.90;;;;;;5059110;28;20207;-90
2023/01/26 11:06:12;;;;;;;43.20;18.67;;;4.40;99.90;;;;;;5073242;28;20157;-85
2023/01/26 11:08:39;;;;;;;48.77;18.80;;;4.40;99.90;;;;;;5077167;28;20150;-86
2023/01/26 11:11:20;;;;;;;43.77;19.30;;;4.50;99.90;;;;;;5075988;28;20192;-86
2023/01/26 11:13:46;;;;;;;38.70;18.17;;;4.50;99.90;;;;;;5064073;28;20200;-88
2023/01/26 11:16:25;;;;;;;44.50;19.23;;;4.50;99.90;;;;;;5058448;28;20714;-86
2023/01/26 11:19:11;;;;;;;45.77;21.13;;;4.50;99.90;;;;;;5064209;28;20181;-88
2023/01/26 11:21:46;;;;;;;47.57;21.03;;;4.50;99.90;;;;;;5056480;28;20283;-88
2023/01/26 11:24:23;;;;;;;44.63;20.47;;;4.50;99.90;;;;;;5056054;28;20168;-88
2023/01/26 11:26:58;;;;;;;44.40;21.23;;;4.40;99.90;;;;;;5056682;28;20177;-89
2023/01/26 11:29:42;;;;;;;46.73;21.70;;;4.30;99.90;;;;;;5056425;28;20185;-87
2023/01/26 11:32:37;;;;;;;53.53;22.03;;;4.50;99.90;;;;;;5057496;28;20173;-88
2023/01/26 11:35:27;;;;;;;42.60;21.17;;;4.60;99.90;;;;;;5057407;28;20625;-90
2023/01/26 11:38:40;;;;;;;47.27;22.17;;;4.70;99.90;;;;;;5057996;28;20624;-87
2023/01/26 11:41:33;;;;;;;50.93;21.70;;;4.60;99.90;;;;;;5002253;28;20214;-87
2023/01/26 11:44:22;;;;;;;43.70;23.30;;;4.40;99.90;;;;;;5054393;28;20181;-90
2023/01/26 11:46:50;;;;;;;50.13;22.57;;;4.70;99.90;;;;;;5041194;28;20177;-88
2023/01/26 11:49:39;;;;;;;45.00;23.53;;;4.70;99.90;;;;;;5057551;28;20169;-87
2023/01/26 11:52:23;;;;;;;47.73;23.73;;;4.90;99.90;;;;;;5055442;28;20181;-88
2023/01/26 11:55:14;;;;;;;49.03;23.17;;;5.10;99.90;;;;;;5057571;28;20181;-89
2023/01/26 11:57:49;;;;;;;47.37;23.50;;;5.10;99.90;;;;;;5060271;28;20191;-88
2023/01/26 12:00:23;;;;;;;48.70;23.43;;;5.30;99.90;;;;;;5069748;28;20166;-84
2023/01/26 12:03:04;;;;;;;45.50;22.37;;;5.30;99.90;;;;;;5065146;28;20206;-90
2023/01/26 12:05:40;;;;;;;48.80;23.17;;;5.30;99.90;;;;;;5056793;28;20172;-84
2023/01/26 12:08:26;;;;;;;47.13;22.93;;;5.40;99.90;;;;;;5055862;28;20173;-87
2023/01/26 12:11:28;;;;;;;48.13;23.47;;;5.40;99.90;;;;;;5056560;28;20271;-88
2023/01/26 12:13:53;;;;;;;47.63;22.03;;;5.40;99.90;;;;;;5057444;28;20272;-89
2023/01/26 12:16:44;;;;;;;45.07;23.00;;;5.60;99.90;;;;;;5062538;28;20173;-90
2023/01/26 12:19:41;;;;;;;48.43;22.23;;;5.60;99.90;;;;;;5058747;28;20585;-88
2023/01/26 12:22:25;;;;;;;47.20;22.43;;;5.60;99.90;;;;;;5019828;28;20231;-87
2023/01/26 12:25:16;;;;;;;47.47;23.33;;;5.80;99.90;;;;;;5027589;28;20191;-85
2023/01/26 12:27:52;;;;;;;46.97;22.80;;;5.70;99.90;;;;;;5073662;28;20180;-86
2023/01/26 12:30:17;;;;;;;53.40;23.83;;;5.70;99.90;;;;;;5060394;28;20188;-90
2023/01/26 12:32:44;;;;;;;41.83;22.03;;;5.80;99.90;;;;;;5060604;28;20176;-90
2023/01/26 12:35:12;;;;;;;45.40;22.63;;;5.80;99.90;;;;;;5059905;28;20562;-90
2023/01/26 12:37:48;;;;;;;55.70;22.53;;;5.80;99.90;;;;;;5058413;28;20267;-87
2023/01/26 12:40:25;;;;;;;45.90;21.50;;;6.00;99.90;;;;;;5057776;28;20169;-88
2023/01/26 12:43:00;;;;;;;51.80;22.10;;;6.10;99.90;;;;;;5057557;28;20197;-89
2023/01/26 12:45:34;;;;;;;49.83;20.80;;;6.20;99.90;;;;;;5058952;28;20631;-89
2023/01/26 12:48:22;;;;;;;42.80;19.87;;;6.40;99.90;;;;;;5058124;28;20172;-88
2023/01/26 12:51:01;;;;;;;41.83;19.00;;;6.50;99.90;;;;;;5058857;28;20195;-90
2023/01/26 12:53:35;;;;;;;37.40;16.80;;;6.60;99.90;;;;;;5059352;28;20180;-89
2023/01/26 12:56:01;;;;;;;47.20;14.87;;;6.60;99.90;;;;;;5058375;28;20260;-89
2023/01/26 12:58:31;;;;;;;37.93;15.33;;;6.80;99.90;;;;;;5060073;28;20602;-89
2023/01/26 13:01:05;;;;;;;25.77;10.90;;;6.70;99.90;;;;;;5060215;28;20692;-90
2023/01/26 13:03:40;;;;;;;28.20;10.43;;;6.80;99.90;;;;;;5059342;28;20169;-91
2023/01/26 13:06:09;;;;;;;36.47;10.17;;;6.80;99.90;;;;;;5060926;28;20613;-89
2023/01/26 13:08:39;;;;;;;29.97;10.50;;;6.90;99.90;;;;;;5060226;28;20307;-91
2023/01/26 13:11:08;;;;;;;31.13;9.83;;;6.90;99.90;;;;;;5061832;28;20629;-90
2023/01/26 13:13:58;;;;;;;25.07;8.90;;;6.90;99.90;;;;;;5059485;28;20189;-88
2023/01/26 13:16:33;;;;;;;19.60;6.97;;;7.00;99.90;;;;;;5059084;28;20177;-91
2023/01/26 13:19:02;;;;;;;20.30;6.33;;;7.10;99.90;;;;;;5062632;28;20169;-88
2023/01/26 13:21:35;;;;;;;21.97;5.80;;;7.20;99.90;;;;;;5060926;28;20219;-90
2023/01/26 13:24:03;;;;;;;18.40;5.50;;;7.20;99.90;;;;;;5078066;28;20289;-89
2023/01/26 13:26:47;;;;;;;24.50;6.23;;;7.20;99.90;;;;;;5077341;28;20169;-89
2023/01/26 13:29:30;;;;;;;20.73;6.93;;;7.20;99.90;;;;;;5077588;28;20157;-89
2023/01/26 13:31:59;;;;;;;15.60;4.43;;;7.20;99.90;;;;;;5068495;28;20169;-89
2023/01/26 13:34:48;;;;;;;16.07;4.10;;;7.30;99.90;;;;;;5060546;28;20268;-86
2023/01/26 13:37:25;;;;;;;14.10;4.77;;;7.30;99.90;;;;;;5061255;28;20158;-89
2023/01/26 13:39:55;;;;;;;18.00;4.97;;;7.30;99.90;;;;;;5059902;28;20168;-89
2023/01/26 13:42:32;;;;;;;13.87;3.00;;;7.40;99.90;;;;;;5062274;28;20706;-89
2023/01/26 13:45:06;;;;;;;12.67;4.17;;;7.40;99.90;;;;;;5042912;28;20207;-89
2023/01/26 13:47:41;;;;;;;21.07;4.40;;;7.50;99.90;;;;;;5060357;28;20178;-89
2023/01/26 13:50:37;;;;;;;13.07;4.07;;;7.50;99.90;;;;;;5059574;28;20260;-90
2023/01/26 13:53:25;;;;;;;14.30;3.63;;;7.50;97.70;;;;;;5057425;28;20188;-90
2023/01/26 13:56:29;;;;;;;14.43;3.10;;;7.60;96.50;;;;;;5057654;28;20188;-88